Oughtibridge, United Kingdom
Current Conditions -  °F | °C
As of 4:20 PM on Thursday 23 Oct 2014 (Local Time) from EGCN Reporting Station
Overcast Overcast  
Wind Chill: 15°   Ceiling: 1700
Heat Index: 15°   Visibility: 6mi
Dew Point: 12°   Wind: 10mph
Humidity: 82%   Direction: 170°S
Pressure: 29.94"   Gusts: NA
Location:  53.44°N, 1.54°W
Report Text: EGCN 231520Z 17009KT 9999 OVC017 15/12 Q1014
Loading
Personal Weather Stations






























Interactive Weather Map
Tropical Storm Tracking
New forecast layout! Learn more

10-Day Weather Forecast

Advertisements
Track Severe Weather on mobile